Terminal Aerodrome Forecast
Issued by NWS Bismarck, ND

Home | Current Version | Previous Version | Text Only | Print | Product List | Glossary Off
Versions: 1 2 3 4 5 6 7 8 9 10 11 12 13 14 15 16 17 18 19 20

000
FTUS43 KBIS 241100
TAFISN
TAF
KISN 241134Z 2412/2512 18004KT P6SM BKN070 OVC090
     FM241500 21007KT P6SM BKN040 OVC080
     FM250000 32008KT P6SM BKN025 OVC040
     FM250600 35012KT P6SM OVC015=

USA.gov is the U.S. government's official web portal to all federal, state and local government web resources and services.